Warning: Javascript must be enabled to use all the features on this page!


Page Loading - Please Wait...

Click to hideNews Bulletins

Peak Streamflow for the Nation

USGS 02401000 BIG WILLS CREEK NEAR REECE CITY

Etowah County, Alabama
Hydrologic Unit Code 03150106
Latitude  34°05'53", Longitude  86°02'17" NAD27
Drainage area 182.00  square miles
Contributing drainage area 182.00  square miles
Gage datum 570.00 feet above NGVD29
Output formats
Table
Graph
Tab-separated file
peakfq (watstore) format
Reselect output format
Water
Year
Date Gage
Height
(feet)
Stream-
flow
(cfs)
1884 1884 16.30Bm 20,5007,Bm
1943 1942-12 13.905,Bd 11,000Bd
1944 1944-03-29 10.76 5,410
1945 1945-02-14 9.52 2,920
1946 1946-02-10 13.04 9,530
1947 1947-01-21 11.80 7,030
1948 1948-02-14 11.00 5,480
1949 1949-01-05 14.20 11,800
1950 1950-03-14 12.00 7,430
1951 1951-03-29 14.50 14,800
1952 1951-12-21 10.60 4,340
1953 1953-02-22 11.10 5,180
1954 1954-01-16 11.10 5,180
1955 1955-02-07 9.64 3,040
1956 1956-04-17 10.20 3,760
1957 1957-02-02 11.20 5,360
1958 1957-11-19 12.00 6,250
1959 1959-02-14   1,4001
1960 1960-03-03 7.88 1,710
1961 1961-02-23 11.56 6,310
1962 1962-01-28 12.76 9,180
1963 1963-04-30 14.37 11,800
1964 1964-03-26 13.76 10,600
1965 1965-03-27 11.72 6,510
1966 1966-03-04 13.66 10,400
1967 1967-02-21 9.80 3,420
1968 1968-01-10   7,0002
1969 1969-05-19 10.81 4,800
1970 1970-04-27 10.39 4,150
1971 1971-02-27 10.15 3,820
1972 1972-01-05 9.55 3,150
1973 1973-05-28 11.90 6,850
1974 1973-12-27 9.30 2,900
1975 1975-03-15 10.62 4,490
1976 1976-01-27 10.10 3,760
1977 1977-04-05 12.37 7,780
1978 1977-11-06 10.81 4,860
1979 1979-04-13 13.48 10,500
1989 1989-03-01 10.14 3,780
1990 1990-02-17 15.07 15,800
1991 1991-02-20 10.33 4,050
1992 1992-02-27 8.56 2,340
1993 1993-01-13 8.73 2,440
1994 1994-03-29 10.78 4,760
1995 1995-02-17 11.89 6,770
1996 1995-10-06 12.37 7,760
1997 1997-05-04 13.11 9,480
1998 1998-01-08 10.48 4,280
1999 1999-01-24 10.00 3,580
2000 2000-04-04 10.34 4,060
2001 2001-03-21 9.91 3,480
2002 2002-01-25 10.64 4,530
2003 2003-05-07 12.85 8,840
2004 2004-09-18 12.14 7,280
2005 2004-11-25 12.91 8,980
2006 2006-01-18 5.38 997
2007 2007-01-08 5.42 1,010
2008 2008-01-12 7.99 2,020
2009 2009-01-07 12.66 8,400
2010 2009-12-10 10.89 4,950
2011 2011-09-07 11.51 6,040
2012 2011-11-29 9.34 2,910
2013 2013-01-16 11.46 5,940
2014 2014-04-08 10.76 4,730
2015 2015-01-05 7.95 2,000
2016 2015-12-26 13.11 9,190
2017 2017-01-24 10.18 4,020
2018 2018-04-24 9.52 3,230
2019 2019-02-23 11.47 5,940
?
  Peak Gage-Height Qualification Codes.
?
  Peak Streamflow Qualification Codes.